Time;durP1;ratioP1;P1;durP2;ratioP2;P2;SDS_P1;SDS_P2;PMS_P1;PMS_P2;Temp;Humidity;BMP_temperature;BMP_pressure;BME280_temperature;BME280_humidity;BME280_pressure;Samples;Min_cycle;Max_cycle;Signal;HPM_P1;HPM_P2
2023/05/05 00:00:14;;;;;;;;;;;;;;;7.27;67.63;102301.09;108834;1259;71410;-85
2023/05/05 00:03:01;;;;;;;;;;;;;;;7.29;67.64;102301.01;108778;1256;60222;-85
2023/05/05 00:05:31;;;;;;;;;;;;;;;7.30;67.75;102296.18;108737;1257;126302;-87
2023/05/05 00:08:02;;;;;;;;;;;;;;;7.29;67.88;102299.31;108846;1256;75240;-87
2023/05/05 00:10:30;;;;;;;;;;;;;;;7.31;67.93;102303.06;108670;1256;125054;-86
2023/05/05 00:12:57;;;;;;;;;;;;;;;7.31;68.19;102309.70;108837;1256;73130;-86
2023/05/05 00:15:24;;;;;;;;;;;;;;;7.32;68.31;102305.41;108511;1256;252028;-85
2023/05/05 00:17:51;;;;;;;;;;;;;;;7.32;68.54;102307.86;108615;1262;126188;-85
2023/05/05 00:20:18;;;;;;;;;;;;;;;7.32;68.67;102304.91;108628;1257;74869;-85
2023/05/05 00:22:45;;;;;;;;;;;;;;;7.34;68.78;102309.54;108656;1256;125081;-86
2023/05/05 00:25:12;;;;;;;;;;;;;;;7.35;68.79;102308.05;108691;1256;72658;-85
2023/05/05 00:27:39;;;;;;;;;;;;;;;7.37;68.86;102313.92;108664;1257;126065;-85
2023/05/05 00:30:06;;;;;;;;;;;;;;;7.39;69.09;102314.76;108786;1257;60210;-85
2023/05/05 00:32:33;;;;;;;;;;;;;;;7.39;69.14;102308.45;108762;1256;75512;-85
2023/05/05 00:35:00;;;;;;;;;;;;;;;7.41;69.12;102311.20;108648;1256;126077;-86
2023/05/05 00:37:27;;;;;;;;;;;;;;;7.44;69.20;102315.55;108767;1256;72628;-85
2023/05/05 00:39:54;;;;;;;;;;;;;;;7.46;69.25;102316.77;108668;1256;126423;-85
2023/05/05 00:42:21;;;;;;;;;;;;;;;7.47;69.27;102318.21;108772;1256;60362;-85
2023/05/05 00:44:47;;;;;;;;;;;;;;;7.48;69.30;102318.79;108748;1256;76249;-85
2023/05/05 00:47:15;;;;;;;;;;;;;;;7.47;69.41;102320.52;108608;1256;126098;-85
2023/05/05 00:49:42;;;;;;;;;;;;;;;7.48;69.56;102316.73;108761;1256;71188;-85
2023/05/05 00:52:09;;;;;;;;;;;;;;;7.47;69.45;102318.96;108800;1256;125730;-85
2023/05/05 00:54:36;;;;;;;;;;;;;;;7.46;69.46;102320.10;108749;1256;60222;-86
2023/05/05 00:57:03;;;;;;;;;;;;;;;7.44;69.61;102322.35;108751;1256;75524;-86
2023/05/05 00:59:30;;;;;;;;;;;;;;;7.41;69.69;102324.99;108744;1256;125667;-85
2023/05/05 01:01:57;;;;;;;;;;;;;;;7.37;69.78;102321.48;108775;1272;73104;-86
2023/05/05 01:04:24;;;;;;;;;;;;;;;7.36;69.92;102319.11;108744;1256;125095;-84
2023/05/05 01:07:10;;;;;;;;;;;;;;;7.36;69.81;102318.41;108874;1256;60572;-85
2023/05/05 01:09:56;;;;;;;;;;;;;;;7.34;69.73;102314.43;108630;1256;125917;-85
2023/05/05 01:12:26;;;;;;;;;;;;;;;7.34;69.93;102317.58;108775;1256;68031;-84
2023/05/05 01:15:08;;;;;;;;;;;;;;;7.34;69.86;102323.17;108830;1256;72852;-84
2023/05/05 01:17:38;;;;;;;;;;;;;;;7.34;69.80;102325.79;108714;1257;125494;-84
2023/05/05 01:20:15;;;;;;;;;;;;;;;7.33;69.91;102324.88;108837;1256;60196;-84
2023/05/05 01:22:45;;;;;;;;;;;;;;;7.33;69.89;102324.11;108691;1256;126013;-84
2023/05/05 01:25:16;;;;;;;;;;;;;;;7.33;69.76;102324.87;108734;1257;67475;-84
2023/05/05 01:28:02;;;;;;;;;;;;;;;7.34;69.73;102328.59;108798;1256;125328;-87
2023/05/05 01:30:41;;;;;;;;;;;;;;;7.32;69.62;102323.92;108908;1257;60326;-85
2023/05/05 01:33:10;;;;;;;;;;;;;;;7.29;69.60;102328.63;108781;1257;60254;-85
2023/05/05 01:35:40;;;;;;;;;;;;;;;7.27;69.49;102324.12;108544;1256;126150;-84
2023/05/05 01:38:12;;;;;;;;;;;;;;;7.26;69.49;102322.80;108766;1256;65883;-84
2023/05/05 01:40:53;;;;;;;;;;;;;;;7.23;69.55;102322.45;108583;1256;125592;-84
2023/05/05 01:43:19;;;;;;;;;;;;;;;7.18;69.40;102320.46;108826;1256;60550;-88
2023/05/05 01:45:46;;;;;;;;;;;;;;;7.17;69.37;102323.84;108680;1256;125492;-85
2023/05/05 01:48:14;;;;;;;;;;;;;;;7.15;69.28;102321.84;108726;1256;75351;-87
2023/05/05 01:50:41;;;;;;;;;;;;;;;7.14;69.30;102318.61;108818;1257;65590;-87
2023/05/05 01:53:08;;;;;;;;;;;;;;;7.13;69.27;102317.11;108694;1256;124765;-87
2023/05/05 01:55:35;;;;;;;;;;;;;;;7.13;69.28;102317.66;108858;1256;60076;-87
2023/05/05 01:58:02;;;;;;;;;;;;;;;7.12;69.29;102320.57;108645;1256;125854;-86
2023/05/05 02:00:30;;;;;;;;;;;;;;;7.08;69.11;102321.54;108744;1256;75502;-86
2023/05/05 02:02:56;;;;;;;;;;;;;;;7.05;69.16;102318.02;108690;1256;66233;-86
2023/05/05 02:05:23;;;;;;;;;;;;;;;7.02;69.27;102318.02;108662;1256;125198;-86
2023/05/05 02:07:50;;;;;;;;;;;;;;;6.97;69.24;102319.94;108790;1256;60158;-86
2023/05/05 02:10:17;;;;;;;;;;;;;;;6.92;69.27;102319.09;108686;1256;126292;-86
2023/05/05 02:12:44;;;;;;;;;;;;;;;6.86;69.34;102317.30;108886;1257;74802;-87
2023/05/05 02:15:11;;;;;;;;;;;;;;;6.81;69.44;102316.64;108826;1256;65860;-87
2023/05/05 02:17:39;;;;;;;;;;;;;;;6.76;69.69;102315.65;108655;1256;125626;-87
2023/05/05 02:20:07;;;;;;;;;;;;;;;6.74;69.63;102315.47;108692;1257;60199;-87
2023/05/05 02:22:34;;;;;;;;;;;;;;;6.71;69.81;102316.84;108584;1264;125084;-87
2023/05/05 02:25:01;;;;;;;;;;;;;;;6.69;69.98;102316.90;108871;1259;75500;-86
2023/05/05 02:27:28;;;;;;;;;;;;;;;6.68;70.21;102317.89;108672;1262;65219;-87
2023/05/05 02:29:58;;;;;;;;;;;;;;;6.71;70.44;102318.05;108597;1256;125866;-87
2023/05/05 02:32:32;;;;;;;;;;;;;;;6.77;70.66;102313.27;108662;1261;60366;-84
2023/05/05 02:35:10;;;;;;;;;;;;;;;6.80;70.77;102313.27;108813;1256;125404;-85
2023/05/05 02:37:37;;;;;;;;;;;;;;;6.80;70.88;102320.95;108727;1257;74017;-85
2023/05/05 02:40:04;;;;;;;;;;;;;;;6.80;70.81;102320.57;108623;1256;125183;-85
2023/05/05 02:42:32;;;;;;;;;;;;;;;6.76;70.77;102322.04;108749;1256;71990;-85
2023/05/05 02:45:00;;;;;;;;;;;;;;;6.71;70.74;102328.17;108765;1256;60224;-85
2023/05/05 02:47:33;;;;;;;;;;;;;;;6.65;70.59;102330.73;108691;1256;126460;-85
2023/05/05 02:50:00;;;;;;;;;;;;;;;6.57;69.89;102329.92;108775;1256;76029;-84
2023/05/05 02:52:27;;;;;;;;;;;;;;;6.52;69.18;102328.13;108713;1257;124660;-85
2023/05/05 02:54:54;;;;;;;;;;;;;;;6.49;68.92;102333.20;108800;1256;71512;-86
2023/05/05 02:57:21;;;;;;;;;;;;;;;6.48;68.73;102334.54;108732;1257;60258;-86
2023/05/05 02:59:51;;;;;;;;;;;;;;;6.45;68.39;102331.89;108699;1256;126292;-85
2023/05/05 03:02:33;;;;;;;;;;;;;;;6.40;68.10;102333.83;108843;1262;74201;-85
2023/05/05 03:05:01;;;;;;;;;;;;;;;6.32;67.91;102330.52;108740;1256;126192;-85
2023/05/05 03:07:33;;;;;;;;;;;;;;;6.27;67.59;102333.59;108817;1256;72684;-85
2023/05/05 03:10:09;;;;;;;;;;;;;;;6.20;67.39;102330.51;108560;1256;125433;-85
2023/05/05 03:12:37;;;;;;;;;;;;;;;6.14;67.12;102337.97;108663;1258;60252;-86
2023/05/05 03:15:04;;;;;;;;;;;;;;;6.09;66.93;102334.84;108772;1257;75007;-86
2023/05/05 03:17:32;;;;;;;;;;;;;;;6.05;66.76;102341.88;108804;1261;125152;-86
2023/05/05 03:19:59;;;;;;;;;;;;;;;6.02;66.62;102342.38;108651;1263;72709;-86
2023/05/05 03:22:26;;;;;;;;;;;;;;;6.01;66.62;102349.83;108552;1256;126912;-86
2023/05/05 03:24:53;;;;;;;;;;;;;;;6.00;66.63;102350.09;108757;1256;60775;-86
2023/05/05 03:27:20;;;;;;;;;;;;;;;6.00;66.50;102350.60;108706;1272;75987;-85
2023/05/05 03:29:47;;;;;;;;;;;;;;;5.99;66.62;102353.37;108720;1262;126314;-85
2023/05/05 03:32:17;;;;;;;;;;;;;;;5.99;66.58;102354.36;108788;1257;72406;-86
2023/05/05 03:34:44;;;;;;;;;;;;;;;6.03;66.53;102358.01;108717;1256;125393;-85
2023/05/05 03:37:10;;;;;;;;;;;;;;;6.35;66.71;102358.04;108791;1256;60434;-86
2023/05/05 03:39:37;;;;;;;;;;;;;;;6.79;66.74;102360.96;108689;1256;125071;-85
2023/05/05 03:42:04;;;;;;;;;;;;;;;7.67;66.61;102355.83;108889;1256;67524;-85
2023/05/05 03:44:31;;;;;;;;;;;;;;;8.31;65.25;102360.21;108829;1272;73109;-85
2023/05/05 03:46:58;;;;;;;;;;;;;;;8.64;64.16;102356.59;108634;1256;124458;-85
2023/05/05 03:49:25;;;;;;;;;;;;;;;8.51;62.57;102361.64;108814;1257;59878;-85
2023/05/05 03:51:52;;;;;;;;;;;;;;;8.38;62.59;102368.02;108716;1256;124253;-85
2023/05/05 03:54:19;;;;;;;;;;;;;;;9.04;62.91;102368.34;108220;1256;67541;-83
2023/05/05 03:56:46;;;;;;;;;;;;;;;10.14;62.71;102368.41;108615;1259;72339;-83
2023/05/05 03:59:13;;;;;;;;;;;;;;;11.19;61.33;102373.90;108634;1262;125082;-84
2023/05/05 04:01:40;;;;;;;;;;;;;;;12.06;60.24;102364.08;108871;1256;59886;-84
2023/05/05 04:04:08;;;;;;;;;;;;;;;13.20;59.84;102370.16;108743;1262;126507;-84
2023/05/05 04:06:35;;;;;;;;;;;;;;;14.20;57.88;102365.16;108935;1256;65792;-84
2023/05/05 04:09:02;;;;;;;;;;;;;;;14.81;55.88;102370.83;108752;1256;71706;-84
2023/05/05 04:11:29;;;;;;;;;;;;;;;15.06;54.38;102370.06;108593;1257;124449;-84
2023/05/05 04:13:56;;;;;;;;;;;;;;;15.40;53.92;102364.42;108682;1272;60362;-84
2023/05/05 04:16:22;;;;;;;;;;;;;;;15.98;53.00;102368.64;108672;1257;124518;-84
2023/05/05 04:18:49;;;;;;;;;;;;;;;16.62;52.19;102367.76;108748;1256;66742;-84
2023/05/05 04:21:16;;;;;;;;;;;;;;;17.27;50.50;102368.83;108890;1256;72721;-86
2023/05/05 04:23:43;;;;;;;;;;;;;;;17.64;49.04;102371.60;108609;1256;125382;-85
2023/05/05 04:26:10;;;;;;;;;;;;;;;18.12;48.51;102374.04;108838;1256;59914;-84
2023/05/05 04:28:37;;;;;;;;;;;;;;;18.70;47.74;102373.54;108572;1256;126494;-85
2023/05/05 04:31:04;;;;;;;;;;;;;;;18.91;46.04;102373.73;108669;1256;68656;-85
2023/05/05 04:33:31;;;;;;;;;;;;;;;19.20;45.85;102372.23;108581;1256;125458;-86
2023/05/05 04:35:58;;;;;;;;;;;;;;;19.69;44.03;102375.62;108746;1256;60213;-86
2023/05/05 04:38:25;;;;;;;;;;;;;;;19.44;42.24;102387.17;108844;1257;59893;-86
2023/05/05 04:40:52;;;;;;;;;;;;;;;18.19;40.91;102392.10;108724;1256;125323;-86
2023/05/05 04:43:19;;;;;;;;;;;;;;;16.47;40.82;102389.46;108661;1256;67601;-86
2023/05/05 04:45:55;;;;;;;;;;;;;;;15.19;41.35;102403.73;108711;1257;125358;-86
2023/05/05 04:48:22;;;;;;;;;;;;;;;14.98;42.50;102401.98;108879;1256;59911;-86
2023/05/05 04:54:00;;;;;;;;;;;;;;;17.85;41.70;102399.40;108654;1261;74311;-86
2023/05/05 04:56:29;;;;;;;;;;;;;;;18.56;40.55;102399.59;108793;1257;66920;-86
2023/05/05 04:58:56;;;;;;;;;;;;;;;19.21;40.48;102399.84;108629;1262;125837;-86
2023/05/05 05:01:23;;;;;;;;;;;;;;;20.05;40.05;102392.11;108870;1272;60282;-85
2023/05/05 05:03:50;;;;;;;;;;;;;;;20.27;38.03;102405.55;108807;1256;125773;-85
2023/05/05 05:06:17;;;;;;;;;;;;;;;20.08;38.09;102406.41;108749;1272;75951;-85
2023/05/05 05:08:44;;;;;;;;;;;;;;;20.48;37.53;102413.27;108897;1261;67095;-85
2023/05/05 05:11:11;;;;;;;;;;;;;;;20.49;36.27;102414.53;108620;1262;124566;-85
2023/05/05 05:13:38;;;;;;;;;;;;;;;20.45;36.02;102413.77;108593;1263;60380;-85
2023/05/05 05:16:05;;;;;;;;;;;;;;;20.96;36.34;102412.15;108724;1257;125946;-84
2023/05/05 05:18:32;;;;;;;;;;;;;;;21.39;35.68;102419.81;108852;1261;74913;-85
2023/05/05 05:20:59;;;;;;;;;;;;;;;21.30;34.87;102417.23;108702;1262;65695;-84
2023/05/05 05:23:26;;;;;;;;;;;;;;;21.46;34.86;102423.98;108687;1261;124979;-85
2023/05/05 05:25:52;;;;;;;;;;;;;;;21.24;33.82;102425.77;108672;1260;60274;-85
2023/05/05 05:28:19;;;;;;;;;;;;;;;20.79;33.63;102428.92;108537;1256;125597;-84
2023/05/05 05:30:46;;;;;;;;;;;;;;;19.71;33.35;102432.79;108809;1256;74189;-86
2023/05/05 05:33:13;;;;;;;;;;;;;;;18.28;33.18;102437.94;108766;1256;66062;-86
2023/05/05 05:35:40;;;;;;;;;;;;;;;16.65;33.34;102438.86;108682;1256;125937;-86
2023/05/05 05:38:07;;;;;;;;;;;;;;;15.37;34.30;102442.86;108844;1257;60132;-86
2023/05/05 05:40:34;;;;;;;;;;;;;;;14.23;34.85;102443.48;108658;1261;125575;-86
2023/05/05 05:43:02;;;;;;;;;;;;;;;13.12;35.42;102453.02;108715;1256;76639;-86
2023/05/05 05:45:28;;;;;;;;;;;;;;;12.14;36.26;102448.95;108781;1256;66686;-86
2023/05/05 05:47:55;;;;;;;;;;;;;;;11.40;37.16;102453.34;108758;1261;125165;-86
2023/05/05 05:50:25;;;;;;;;;;;;;;;10.91;38.02;102459.66;108728;1256;60256;-87
2023/05/05 05:52:53;;;;;;;;;;;;;;;10.44;38.30;102467.94;108668;1256;125576;-87
2023/05/05 05:55:20;;;;;;;;;;;;;;;9.95;38.62;102466.89;108901;1259;75493;-87
2023/05/05 05:57:47;;;;;;;;;;;;;;;9.56;38.87;102473.11;108712;1257;124855;-93
2023/05/05 06:00:17;;;;;;;;;;;;;;;9.22;39.33;102468.39;108824;1257;73028;-92
2023/05/05 06:02:47;;;;;;;;;;;;;;;8.94;39.66;102464.09;108917;1256;60116;-95
2023/05/05 06:05:16;;;;;;;;;;;;;;;8.73;40.21;102466.71;108833;1257;125772;-93
2023/05/05 06:08:11;;;;;;;;;;;;;;;8.57;40.61;102465.92;108698;1256;76661;-91
2023/05/05 06:10:41;;;;;;;;;;;;;;;8.39;40.83;102469.38;108647;1257;124879;-93
2023/05/05 06:13:08;;;;;;;;;;;;;;;8.26;41.32;102468.39;108762;1256;71608;-92
2023/05/05 06:15:36;;;;;;;;;;;;;;;8.19;41.54;102471.24;108800;1256;60335;-93
2023/05/05 06:18:04;;;;;;;;;;;;;;;8.16;41.77;102472.99;108573;1257;123255;-90
2023/05/05 06:20:31;;;;;;;;;;;;;;;8.13;41.88;102474.38;108672;1256;75149;-91
2023/05/05 06:22:58;;;;;;;;;;;;;;;8.15;42.12;102482.21;108649;1257;125118;-90
2023/05/05 06:25:25;;;;;;;;;;;;;;;8.16;42.15;102484.20;108749;1256;72119;-91
2023/05/05 06:27:52;;;;;;;;;;;;;;;8.08;41.82;102495.60;108659;1256;124899;-90
2023/05/05 06:30:19;;;;;;;;;;;;;;;7.98;41.54;102491.11;108749;1256;59880;-91
2023/05/05 06:32:46;;;;;;;;;;;;;;;7.89;41.68;102491.80;108902;1257;75540;-90
2023/05/05 06:35:13;;;;;;;;;;;;;;;7.81;41.53;102497.73;108679;1256;124620;-90
2023/05/05 06:37:40;;;;;;;;;;;;;;;7.76;41.65;102496.66;108782;1257;73247;-90
2023/05/05 06:40:08;;;;;;;;;;;;;;;7.72;41.67;102503.59;108670;1256;124308;-92
2023/05/05 06:42:35;;;;;;;;;;;;;;;7.67;42.03;102497.68;108597;1256;60371;-92
2023/05/05 06:45:02;;;;;;;;;;;;;;;7.68;42.69;102498.47;108698;1258;75989;-91
2023/05/05 06:47:29;;;;;;;;;;;;;;;7.75;43.23;102497.16;108580;1257;124923;-93
2023/05/05 06:49:56;;;;;;;;;;;;;;;7.81;43.62;102505.23;108729;1262;71785;-89
2023/05/05 06:52:23;;;;;;;;;;;;;;;7.84;43.70;102501.38;108769;1256;124654;-89
2023/05/05 06:54:50;;;;;;;;;;;;;;;7.80;43.83;102513.22;108795;1256;60142;-89
2023/05/05 06:57:17;;;;;;;;;;;;;;;7.75;44.06;102505.77;108792;1274;75623;-89
2023/05/05 06:59:44;;;;;;;;;;;;;;;7.74;44.13;102505.46;108797;1257;124178;-88
2023/05/05 07:02:11;;;;;;;;;;;;;;;7.75;44.42;102505.56;108729;1256;72754;-88
2023/05/05 07:04:38;;;;;;;;;;;;;;;7.77;44.38;102506.89;108606;1257;124591;-90
2023/05/05 07:07:05;;;;;;;;;;;;;;;7.79;44.45;102511.93;108698;1258;60659;-90
2023/05/05 07:09:32;;;;;;;;;;;;;;;7.80;44.43;102507.81;108790;1262;73125;-89
2023/05/05 07:11:59;;;;;;;;;;;;;;;7.81;44.45;102509.41;108829;1258;124801;-89
2023/05/05 07:14:28;;;;;;;;;;;;;;;7.80;44.41;102512.31;108883;1257;72707;-89
2023/05/05 07:16:55;;;;;;;;;;;;;;;7.83;44.66;102507.61;108693;1260;124979;-90
2023/05/05 07:19:22;;;;;;;;;;;;;;;7.90;44.82;102508.06;108760;1257;61004;-86
2023/05/05 07:21:50;;;;;;;;;;;;;;;7.95;44.80;102508.26;108799;1257;125587;-83
2023/05/05 07:24:17;;;;;;;;;;;;;;;7.98;44.85;102511.90;108883;1261;67383;-84
2023/05/05 07:26:44;;;;;;;;;;;;;;;7.92;44.94;102504.58;108873;1258;72697;-84
2023/05/05 07:29:11;;;;;;;;;;;;;;;7.94;44.99;102502.78;108703;1256;125873;-83
2023/05/05 07:31:38;;;;;;;;;;;;;;;7.97;45.00;102509.42;108715;1256;60138;-83
2023/05/05 07:34:05;;;;;;;;;;;;;;;7.92;44.84;102503.65;108729;1257;124698;-82
2023/05/05 07:36:31;;;;;;;;;;;;;;;7.90;44.88;102502.51;108752;1258;67624;-82
2023/05/05 07:38:59;;;;;;;;;;;;;;;7.92;45.07;102505.78;108773;1262;71449;-82
2023/05/05 07:41:26;;;;;;;;;;;;;;;8.00;45.11;102512.02;108675;1257;124592;-82
2023/05/05 07:43:53;;;;;;;;;;;;;;;8.02;44.81;102520.17;108821;1257;60297;-82
2023/05/05 07:46:19;;;;;;;;;;;;;;;8.00;44.97;102514.84;108687;1262;125672;-82
2023/05/05 07:48:46;;;;;;;;;;;;;;;8.06;45.20;102516.25;108762;1258;65641;-82
2023/05/05 07:51:14;;;;;;;;;;;;;;;8.11;45.12;102515.73;108862;1256;72971;-82
2023/05/05 07:53:41;;;;;;;;;;;;;;;8.12;45.22;102523.80;108684;1256;124791;-82
2023/05/05 07:56:08;;;;;;;;;;;;;;;8.12;45.48;102518.02;108872;1258;60097;-82
2023/05/05 07:58:34;;;;;;;;;;;;;;;8.09;45.79;102519.58;108730;1257;124222;-82
2023/05/05 08:01:01;;;;;;;;;;;;;;;8.07;45.87;102520.49;108919;1256;66796;-82
2023/05/05 08:03:28;;;;;;;;;;;;;;;8.09;46.32;102541.27;108907;1257;72691;-82
2023/05/05 08:05:55;;;;;;;;;;;;;;;8.06;46.33;102539.30;108768;1256;126064;-82
2023/05/05 08:08:23;;;;;;;;;;;;;;;7.97;46.56;102543.67;108904;1261;60787;-82
2023/05/05 08:10:50;;;;;;;;;;;;;;;7.93;47.10;102539.55;108816;1262;124115;-82
2023/05/05 08:13:17;;;;;;;;;;;;;;;7.95;47.38;102541.66;108798;1263;67072;-82
2023/05/05 08:15:44;;;;;;;;;;;;;;;8.07;47.56;102537.25;108678;1262;125616;-82
2023/05/05 08:18:14;;;;;;;;;;;;;;;8.19;48.13;102529.16;108756;1257;60325;-82
2023/05/05 08:20:43;;;;;;;;;;;;;;;8.31;48.80;102532.85;108778;1261;59949;-82
2023/05/05 08:23:10;;;;;;;;;;;;;;;8.43;49.33;102534.52;108780;1261;124046;-82
2023/05/05 08:25:37;;;;;;;;;;;;;;;8.53;49.52;102536.19;108848;1258;65653;-82
2023/05/05 08:28:04;;;;;;;;;;;;;;;8.59;49.88;102530.13;108693;1258;124286;-82
2023/05/05 08:30:31;;;;;;;;;;;;;;;8.66;49.73;102527.76;108909;1256;60193;-82
2023/05/05 08:32:59;;;;;;;;;;;;;;;8.69;50.04;102531.21;108830;1257;60809;-82
2023/05/05 08:35:26;;;;;;;;;;;;;;;8.71;49.93;102535.39;108733;1262;124451;-86
2023/05/05 08:37:53;;;;;;;;;;;;;;;8.62;49.96;102532.73;108734;1257;69177;-82
2023/05/05 08:40:21;;;;;;;;;;;;;;;8.52;50.15;102534.74;108686;1258;125292;-83
2023/05/05 08:42:48;;;;;;;;;;;;;;;8.53;50.81;102533.04;108749;1259;60265;-82
2023/05/05 08:45:15;;;;;;;;;;;;;;;8.56;50.84;102545.48;108800;1258;60178;-82
2023/05/05 08:47:42;;;;;;;;;;;;;;;8.55;51.15;102540.52;108765;1257;125809;-82
2023/05/05 08:50:09;;;;;;;;;;;;;;;8.52;51.12;102539.48;108883;1257;67110;-83
2023/05/05 08:52:40;;;;;;;;;;;;;;;8.49;51.13;102548.03;108634;1256;124701;-82
2023/05/05 08:55:36;;;;;;;;;;;;;;;8.42;51.49;102547.05;108754;1260;60264;-83
2023/05/05 08:58:03;;;;;;;;;;;;;;;8.31;51.45;102550.92;108549;1263;124290;-84
2023/05/05 09:00:30;;;;;;;;;;;;;;;8.17;52.17;102561.01;108769;1257;75554;-82
2023/05/05 09:02:57;;;;;;;;;;;;;;;8.19;52.47;102555.88;108790;1257;67041;-82
2023/05/05 09:05:25;;;;;;;;;;;;;;;8.24;52.55;102546.23;108772;1257;124491;-82
2023/05/05 09:07:51;;;;;;;;;;;;;;;8.24;52.68;102551.66;108739;1262;60193;-82
2023/05/05 09:10:18;;;;;;;;;;;;;;;8.24;52.73;102546.10;108761;1259;125099;-82
2023/05/05 09:12:45;;;;;;;;;;;;;;;8.31;52.79;102558.21;108867;1258;75429;-82
2023/05/05 09:15:12;;;;;;;;;;;;;;;8.36;52.64;102556.80;108761;1257;66896;-82
2023/05/05 09:17:41;;;;;;;;;;;;;;;8.33;52.67;102569.91;108668;1263;124228;-82
2023/05/05 09:20:11;;;;;;;;;;;;;;;8.20;52.67;102556.27;108777;1262;59877;-82
2023/05/05 09:22:39;;;;;;;;;;;;;;;8.14;53.15;102560.66;108805;1257;125675;-82
2023/05/05 09:25:07;;;;;;;;;;;;;;;8.19;53.42;102558.19;108687;1262;75640;-82
2023/05/05 09:27:34;;;;;;;;;;;;;;;8.15;53.01;102559.83;108866;1261;66308;-83
2023/05/05 09:30:02;;;;;;;;;;;;;;;8.03;53.15;102563.23;108612;1263;125328;-83
2023/05/05 09:32:29;;;;;;;;;;;;;;;7.99;53.55;102561.10;108789;1257;60273;-82
2023/05/05 09:34:57;;;;;;;;;;;;;;;8.05;53.63;102558.48;108672;1257;124138;-82
2023/05/05 09:37:31;;;;;;;;;;;;;;;8.01;53.40;102566.80;108723;1257;76672;-82
2023/05/05 09:39:59;;;;;;;;;;;;;;;7.94;53.65;102567.05;108630;1263;125263;-82
2023/05/05 09:42:26;;;;;;;;;;;;;;;7.91;53.79;102571.27;108839;1258;72710;-82
2023/05/05 09:44:53;;;;;;;;;;;;;;;7.83;53.63;102571.78;108770;1258;59898;-82
2023/05/05 09:47:20;;;;;;;;;;;;;;;7.74;53.78;102573.66;108811;1257;124033;-82
2023/05/05 09:49:57;;;;;;;;;;;;;;;7.74;53.76;102565.78;108796;1258;75529;-82
2023/05/05 09:52:24;;;;;;;;;;;;;;;7.82;53.65;102571.86;108527;1258;124873;-82
2023/05/05 09:54:57;;;;;;;;;;;;;;;7.86;53.87;102576.48;108734;1257;72602;-82
2023/05/05 09:57:24;;;;;;;;;;;;;;;7.91;53.55;102570.19;108578;1263;60261;-85
2023/05/05 09:59:53;;;;;;;;;;;;;;;7.89;53.29;102582.48;108722;1257;124057;-86
2023/05/05 10:02:20;;;;;;;;;;;;;;;7.85;53.36;102582.25;108674;1257;76092;-83
2023/05/05 10:04:47;;;;;;;;;;;;;;;7.79;53.42;102571.02;108610;1258;125588;-85
2023/05/05 10:07:23;;;;;;;;;;;;;;;7.83;53.42;102570.49;108844;1257;71074;-87
2023/05/05 10:09:50;;;;;;;;;;;;;;;7.89;53.49;102574.81;108781;1272;125024;-83
2023/05/05 10:12:17;;;;;;;;;;;;;;;7.97;53.53;102578.84;108773;1258;61133;-83
2023/05/05 10:14:44;;;;;;;;;;;;;;;7.97;53.24;102574.96;108779;1257;75597;-82
2023/05/05 10:17:11;;;;;;;;;;;;;;;7.97;53.24;102572.38;108628;1263;124174;-82
2023/05/05 10:19:38;;;;;;;;;;;;;;;7.96;53.29;102564.58;108750;1257;72470;-83
2023/05/05 10:22:07;;;;;;;;;;;;;;;8.00;53.18;102577.58;108623;1263;126199;-83
2023/05/05 10:24:37;;;;;;;;;;;;;;;7.96;53.27;102560.56;108759;1257;60353;-83
2023/05/05 10:27:23;;;;;;;;;;;;;;;8.05;53.44;102571.45;108781;1257;75720;-83
2023/05/05 10:30:00;;;;;;;;;;;;;;;8.04;52.99;102573.80;108664;1257;124188;-82
2023/05/05 10:32:30;;;;;;;;;;;;;;;7.99;52.82;102578.22;108694;1274;73889;-83
2023/05/05 10:34:58;;;;;;;;;;;;;;;7.94;52.86;102569.16;108698;1259;125847;-82
2023/05/05 10:37:25;;;;;;;;;;;;;;;7.94;52.84;102576.52;108782;1257;60681;-82
2023/05/05 10:39:52;;;;;;;;;;;;;;;7.96;52.88;102573.17;108657;1257;124172;-82
2023/05/05 10:42:20;;;;;;;;;;;;;;;7.98;52.71;102562.80;108819;1257;66981;-83
2023/05/05 10:44:47;;;;;;;;;;;;;;;8.00;52.69;102573.38;108782;1263;70402;-83
2023/05/05 10:47:15;;;;;;;;;;;;;;;8.03;52.58;102569.74;108742;1257;124084;-83
2023/05/05 10:49:45;;;;;;;;;;;;;;;8.09;52.58;102572.72;108758;1257;60130;-83
2023/05/05 10:52:27;;;;;;;;;;;;;;;8.07;52.02;102572.77;108741;1257;124578;-83
2023/05/05 10:54:57;;;;;;;;;;;;;;;7.99;52.27;102567.02;108855;1260;66245;-82
2023/05/05 10:57:25;;;;;;;;;;;;;;;7.99;52.48;102564.08;108699;1257;72800;-83
2023/05/05 10:59:52;;;;;;;;;;;;;;;8.01;52.36;102557.02;108747;1257;125772;-83
2023/05/05 11:02:22;;;;;;;;;;;;;;;7.99;52.28;102554.13;108765;1257;60004;-83
2023/05/05 11:05:05;;;;;;;;;;;;;;;7.94;52.26;102552.05;108596;1257;126067;-83
2023/05/05 11:07:33;;;;;;;;;;;;;;;7.92;52.33;102561.56;108876;1257;65200;-83
2023/05/05 11:10:00;;;;;;;;;;;;;;;7.93;52.37;102560.73;108714;1260;125971;-83
2023/05/05 11:12:31;;;;;;;;;;;;;;;7.96;52.14;102553.77;108837;1257;59894;-83
2023/05/05 11:15:16;;;;;;;;;;;;;;;7.93;52.08;102547.41;108804;1257;60239;-81
2023/05/05 11:17:46;;;;;;;;;;;;;;;7.88;51.95;102550.26;108760;1257;124016;-83
2023/05/05 11:20:13;;;;;;;;;;;;;;;7.84;52.05;102544.06;108892;1257;66723;-83
2023/05/05 11:22:58;;;;;;;;;;;;;;;7.86;52.20;102551.52;108761;1257;124292;-83
2023/05/05 11:25:39;;;;;;;;;;;;;;;7.89;52.19;102546.85;108757;1260;59978;-82
2023/05/05 11:28:15;;;;;;;;;;;;;;;7.89;51.99;102548.04;108656;1257;124708;-83
2023/05/05 11:30:57;;;;;;;;;;;;;;;7.85;51.96;102543.97;108620;1264;75187;-83
2023/05/05 11:33:28;;;;;;;;;;;;;;;7.87;52.11;102539.39;108876;1258;66002;-82
2023/05/05 11:35:55;;;;;;;;;;;;;;;7.92;52.22;102540.76;108763;1257;126196;-83
2023/05/05 11:38:25;;;;;;;;;;;;;;;8.02;52.04;102539.58;108787;1257;60241;-82
2023/05/05 11:40:53;;;;;;;;;;;;;;;7.98;51.91;102538.66;108598;1263;125438;-83
2023/05/05 11:43:20;;;;;;;;;;;;;;;8.03;51.91;102540.03;108738;1256;75490;-82
2023/05/05 11:45:47;;;;;;;;;;;;;;;8.06;51.90;102536.20;108657;1258;124272;-83
2023/05/05 11:48:25;;;;;;;;;;;;;;;8.17;52.00;102545.45;108827;1256;71064;-83
2023/05/05 11:50:52;;;;;;;;;;;;;;;8.27;51.98;102536.27;108865;1258;60133;-83
2023/05/05 11:53:19;;;;;;;;;;;;;;;8.40;51.78;102544.43;108745;1257;124201;-83
2023/05/05 11:55:46;;;;;;;;;;;;;;;8.45;51.57;102531.17;108865;1257;75389;-83
2023/05/05 11:58:16;;;;;;;;;;;;;;;8.53;51.58;102531.67;108750;1257;124278;-83
2023/05/05 12:00:43;;;;;;;;;;;;;;;8.56;51.22;102526.76;108791;1257;71388;-83
2023/05/05 12:03:11;;;;;;;;;;;;;;;8.60;51.13;102536.59;108739;1257;60036;-85
2023/05/05 12:05:38;;;;;;;;;;;;;;;8.66;50.77;102528.05;108673;1257;124456;-82
2023/05/05 12:08:05;;;;;;;;;;;;;;;8.66;50.87;102523.84;108730;1256;73927;-82
2023/05/05 12:10:31;;;;;;;;;;;;;;;8.77;50.82;102530.48;108699;1257;124745;-82
2023/05/05 12:12:58;;;;;;;;;;;;;;;8.81;50.35;102535.11;108901;1257;73063;-82
2023/05/05 12:15:29;;;;;;;;;;;;;;;8.79;50.09;102533.20;108696;1257;271603;-82
2023/05/05 12:17:56;;;;;;;;;;;;;;;8.80;50.16;102534.52;108693;1258;125168;-82
2023/05/05 12:20:31;;;;;;;;;;;;;;;8.88;50.16;102523.43;108825;1257;76824;-82
2023/05/05 12:22:58;;;;;;;;;;;;;;;8.99;50.01;102524.64;108664;1256;125326;-82
2023/05/05 12:25:25;;;;;;;;;;;;;;;9.09;49.91;102520.34;108648;1258;71308;-83
2023/05/05 12:27:52;;;;;;;;;;;;;;;9.10;49.60;102535.63;108581;1258;125482;-82
2023/05/05 12:30:22;;;;;;;;;;;;;;;8.93;48.84;102529.71;108803;1256;60182;-82
2023/05/05 12:32:48;;;;;;;;;;;;;;;8.76;48.98;102546.70;108858;1258;74605;-82
2023/05/05 12:35:15;;;;;;;;;;;;;;;8.72;49.31;102527.06;108774;1257;125097;-82
2023/05/05 12:37:43;;;;;;;;;;;;;;;8.81;49.43;102531.27;108663;1256;73618;-82
2023/05/05 12:40:29;;;;;;;;;;;;;;;8.84;49.48;102526.86;108511;1263;125593;-83